首页
METAR-TAF:

METAR-TAF

机场 :

阿必尚國際機場

阿比让, 科特迪瓦

纬度: 05-15N, 经度: 003-56W, 海拔: 7米

当前天气观测

该预报发布于43分钟前的20:00 UTC
风速2节,风向
温度 27°C
湿度 84%
气压 1012 hPa
能见度10公里或以上
少量云层高于1100英尺
多云层高于4000英尺

METAR: DIAP 202000Z 10002KT 9999 FEW011 BKN040 27/24 Q1012 NOSIG

时间: 20:43 (20:43 UTC)

预报

该预报发布于3小时和43分钟前的17:00 UTC
预报有效从20日的 18点(UTC)到 21日的 24点(UTC)
风速4节,风向南转西南
能見度: 8000
少量云层高于1200英尺
几率 30% :
短暂存在
从 20日的 18点(UTC)到 20日的 21点(UTC)
多云层高于1200英尺
少量云层高于2000英尺, 积雨云.
雷暴
几率 30%
从 21日的 03点(UTC)到 21日的 09点(UTC)
能見度: 2000
少量云层高于1100英尺
轻雾
几率 30% :
短暂存在
从 21日的 13点(UTC)到 21日的 18点(UTC)
多云层高于1200英尺
少量云层高于2000英尺, 积雨云.
雷暴

TAF: DIAP 201700Z 2018/2124 20004KT 8000 FEW012 PROB30 TEMPO 2018/2021 TS BKN012 FEW020CB PROB30 2103/2109 2000 BR FEW011 PROB30 TEMPO 2113/2118 TS BKN012 FEW020CB

超过4000个机场的气象观测和天气预报(METAR&TAF报告)。

可查询的气象台以黄色和红色小点在地图上表示。

将鼠标移到小点上方,可查看气象台名称。

然后点击查看天气观测和预报。

如需切换地图:点击带黑十字的绿色按钮放大地图;点击带横线的绿色按钮缩小地图;或者点击绿色箭头查看邻近地区的地图。


METAR-TAF: